sensor_id;sensor_type;location;lat;lon;timestamp;P1;durP1;ratioP1;P2;durP2;ratioP2
73823;SDS011;62154;54.914;73.444;2023-02-28T00:01:33;18.02;;;6.50;;
73823;SDS011;62154;54.914;73.444;2023-02-28T00:04:01;15.98;;;6.53;;
73823;SDS011;62154;54.914;73.444;2023-02-28T00:06:29;11.95;;;5.20;;
73823;SDS011;62154;54.914;73.444;2023-02-28T00:08:57;11.80;;;5.78;;
73823;SDS011;62154;54.914;73.444;2023-02-28T00:11:24;13.23;;;6.15;;
73823;SDS011;62154;54.914;73.444;2023-02-28T00:13:51;19.75;;;6.47;;
73823;SDS011;62154;54.914;73.444;2023-02-28T00:16:20;12.57;;;5.90;;
73823;SDS011;62154;54.914;73.444;2023-02-28T00:18:48;17.38;;;7.53;;
73823;SDS011;62154;54.914;73.444;2023-02-28T00:21:22;15.67;;;7.90;;
73823;SDS011;62154;54.914;73.444;2023-02-28T00:23:51;14.57;;;6.78;;
73823;SDS011;62154;54.914;73.444;2023-02-28T00:26:19;16.70;;;6.47;;
73823;SDS011;62154;54.914;73.444;2023-02-28T00:28:52;15.93;;;7.15;;
73823;SDS011;62154;54.914;73.444;2023-02-28T00:31:20;15.63;;;6.38;;
73823;SDS011;62154;54.914;73.444;2023-02-28T00:33:52;14.52;;;6.70;;
73823;SDS011;62154;54.914;73.444;2023-02-28T00:36:21;12.07;;;5.93;;
73823;SDS011;62154;54.914;73.444;2023-02-28T00:38:49;14.98;;;6.40;;
73823;SDS011;62154;54.914;73.444;2023-02-28T00:41:16;28.25;;;6.88;;
73823;SDS011;62154;54.914;73.444;2023-02-28T00:43:49;17.35;;;7.20;;
73823;SDS011;62154;54.914;73.444;2023-02-28T00:46:17;13.18;;;6.63;;
73823;SDS011;62154;54.914;73.444;2023-02-28T00:48:45;15.85;;;7.13;;
73823;SDS011;62154;54.914;73.444;2023-02-28T00:51:14;15.32;;;6.80;;
73823;SDS011;62154;54.914;73.444;2023-02-28T00:53:42;13.77;;;6.80;;
73823;SDS011;62154;54.914;73.444;2023-02-28T00:56:10;15.30;;;7.03;;
73823;SDS011;62154;54.914;73.444;2023-02-28T00:58:38;16.35;;;7.18;;
73823;SDS011;62154;54.914;73.444;2023-02-28T01:01:11;14.88;;;7.22;;
73823;SDS011;62154;54.914;73.444;2023-02-28T01:03:39;20.70;;;7.68;;
73823;SDS011;62154;54.914;73.444;2023-02-28T01:06:09;12.43;;;5.88;;
73823;SDS011;62154;54.914;73.444;2023-02-28T01:08:38;13.98;;;6.25;;
73823;SDS011;62154;54.914;73.444;2023-02-28T01:11:10;12.55;;;6.05;;
73823;SDS011;62154;54.914;73.444;2023-02-28T01:13:43;15.75;;;7.63;;
73823;SDS011;62154;54.914;73.444;2023-02-28T01:16:18;21.00;;;8.45;;
73823;SDS011;62154;54.914;73.444;2023-02-28T01:18:56;14.50;;;6.50;;
73823;SDS011;62154;54.914;73.444;2023-02-28T01:21:24;14.02;;;6.28;;
73823;SDS011;62154;54.914;73.444;2023-02-28T01:23:53;12.57;;;5.78;;
73823;SDS011;62154;54.914;73.444;2023-02-28T01:26:34;13.75;;;7.25;;
73823;SDS011;62154;54.914;73.444;2023-02-28T01:29:06;15.45;;;8.50;;
73823;SDS011;62154;54.914;73.444;2023-02-28T01:31:34;9.18;;;5.07;;
73823;SDS011;62154;54.914;73.444;2023-02-28T01:34:02;14.48;;;7.05;;
73823;SDS011;62154;54.914;73.444;2023-02-28T01:36:30;16.40;;;7.53;;
73823;SDS011;62154;54.914;73.444;2023-02-28T01:38:58;14.57;;;5.03;;
73823;SDS011;62154;54.914;73.444;2023-02-28T01:41:28;9.65;;;4.78;;
73823;SDS011;62154;54.914;73.444;2023-02-28T01:44:54;14.93;;;6.55;;
73823;SDS011;62154;54.914;73.444;2023-02-28T01:47:24;13.70;;;7.45;;
73823;SDS011;62154;54.914;73.444;2023-02-28T01:50:09;10.18;;;4.60;;
73823;SDS011;62154;54.914;73.444;2023-02-28T01:52:51;14.48;;;5.80;;
73823;SDS011;62154;54.914;73.444;2023-02-28T01:55:29;13.32;;;7.78;;
73823;SDS011;62154;54.914;73.444;2023-02-28T01:58:00;11.30;;;5.40;;
73823;SDS011;62154;54.914;73.444;2023-02-28T02:00:31;7.82;;;4.32;;
73823;SDS011;62154;54.914;73.444;2023-02-28T02:03:01;10.75;;;5.03;;
73823;SDS011;62154;54.914;73.444;2023-02-28T02:05:46;8.77;;;4.55;;
73823;SDS011;62154;54.914;73.444;2023-02-28T02:08:19;21.90;;;10.73;;
73823;SDS011;62154;54.914;73.444;2023-02-28T02:10:50;11.47;;;5.70;;
73823;SDS011;62154;54.914;73.444;2023-02-28T02:13:42;9.80;;;4.13;;
73823;SDS011;62154;54.914;73.444;2023-02-28T02:16:51;13.63;;;4.80;;
73823;SDS011;62154;54.914;73.444;2023-02-28T02:28:06;7.75;;;4.18;;
73823;SDS011;62154;54.914;73.444;2023-02-28T02:34:05;10.18;;;4.55;;
73823;SDS011;62154;54.914;73.444;2023-02-28T02:37:21;9.88;;;4.30;;
73823;SDS011;62154;54.914;73.444;2023-02-28T02:42:50;9.80;;;4.20;;
73823;SDS011;62154;54.914;73.444;2023-02-28T02:45:37;21.42;;;9.85;;
73823;SDS011;62154;54.914;73.444;2023-02-28T02:48:11;19.80;;;8.32;;
73823;SDS011;62154;54.914;73.444;2023-02-28T02:51:00;55.55;;;22.00;;
73823;SDS011;62154;54.914;73.444;2023-02-28T02:53:47;58.92;;;27.38;;
73823;SDS011;62154;54.914;73.444;2023-02-28T02:56:26;10.43;;;5.38;;
73823;SDS011;62154;54.914;73.444;2023-02-28T02:59:03;12.15;;;4.00;;
73823;SDS011;62154;54.914;73.444;2023-02-28T03:01:36;7.73;;;4.37;;
73823;SDS011;62154;54.914;73.444;2023-02-28T03:04:13;9.10;;;5.75;;
73823;SDS011;62154;54.914;73.444;2023-02-28T03:06:47;13.20;;;3.67;;
73823;SDS011;62154;54.914;73.444;2023-02-28T03:09:15;7.05;;;3.92;;
73823;SDS011;62154;54.914;73.444;2023-02-28T03:11:49;9.07;;;3.45;;
73823;SDS011;62154;54.914;73.444;2023-02-28T03:23:02;25.23;;;8.93;;
73823;SDS011;62154;54.914;73.444;2023-02-28T03:31:50;52.74;;;23.17;;
73823;SDS011;62154;54.914;73.444;2023-02-28T03:34:46;55.03;;;22.77;;
73823;SDS011;62154;54.914;73.444;2023-02-28T03:37:20;19.83;;;11.77;;
73823;SDS011;62154;54.914;73.444;2023-02-28T03:39:55;14.98;;;8.80;;
73823;SDS011;62154;54.914;73.444;2023-02-28T03:42:32;10.50;;;5.47;;
73823;SDS011;62154;54.914;73.444;2023-02-28T03:45:21;15.25;;;6.30;;
73823;SDS011;62154;54.914;73.444;2023-02-28T03:48:08;14.88;;;6.85;;
73823;SDS011;62154;54.914;73.444;2023-02-28T03:51:13;10.05;;;4.63;;
73823;SDS011;62154;54.914;73.444;2023-02-28T03:53:58;10.52;;;4.70;;
73823;SDS011;62154;54.914;73.444;2023-02-28T03:56:39;12.75;;;4.43;;
73823;SDS011;62154;54.914;73.444;2023-02-28T03:59:20;11.13;;;4.88;;
73823;SDS011;62154;54.914;73.444;2023-02-28T04:02:05;23.70;;;10.27;;
73823;SDS011;62154;54.914;73.444;2023-02-28T04:04:38;22.75;;;9.60;;
73823;SDS011;62154;54.914;73.444;2023-02-28T04:07:11;49.50;;;18.95;;
73823;SDS011;62154;54.914;73.444;2023-02-28T04:09:39;55.00;;;20.48;;
73823;SDS011;62154;54.914;73.444;2023-02-28T04:12:07;36.40;;;13.94;;
73823;SDS011;62154;54.914;73.444;2023-02-28T04:14:35;71.75;;;27.13;;
73823;SDS011;62154;54.914;73.444;2023-02-28T04:17:03;39.10;;;14.73;;
73823;SDS011;62154;54.914;73.444;2023-02-28T04:19:40;52.25;;;19.90;;
73823;SDS011;62154;54.914;73.444;2023-02-28T04:22:09;100.47;;;33.67;;
73823;SDS011;62154;54.914;73.444;2023-02-28T04:24:47;128.90;;;42.28;;
73823;SDS011;62154;54.914;73.444;2023-02-28T04:27:15;22.25;;;9.40;;
73823;SDS011;62154;54.914;73.444;2023-02-28T04:29:42;14.05;;;7.80;;
73823;SDS011;62154;54.914;73.444;2023-02-28T04:32:21;13.70;;;6.10;;
73823;SDS011;62154;54.914;73.444;2023-02-28T04:34:49;12.60;;;6.13;;
73823;SDS011;62154;54.914;73.444;2023-02-28T04:37:16;13.57;;;6.45;;
73823;SDS011;62154;54.914;73.444;2023-02-28T04:39:43;15.13;;;6.63;;
73823;SDS011;62154;54.914;73.444;2023-02-28T04:42:11;12.05;;;5.60;;
73823;SDS011;62154;54.914;73.444;2023-02-28T04:44:40;12.20;;;5.72;;
73823;SDS011;62154;54.914;73.444;2023-02-28T04:47:18;12.65;;;4.55;;
73823;SDS011;62154;54.914;73.444;2023-02-28T04:49:55;13.27;;;6.72;;
73823;SDS011;62154;54.914;73.444;2023-02-28T04:52:27;13.80;;;6.88;;
73823;SDS011;62154;54.914;73.444;2023-02-28T04:54:55;12.93;;;6.28;;
73823;SDS011;62154;54.914;73.444;2023-02-28T04:57:32;10.43;;;5.18;;
73823;SDS011;62154;54.914;73.444;2023-02-28T05:00:00;15.93;;;5.97;;
73823;SDS011;62154;54.914;73.444;2023-02-28T05:02:33;13.93;;;6.57;;
73823;SDS011;62154;54.914;73.444;2023-02-28T05:05:02;17.05;;;6.70;;
73823;SDS011;62154;54.914;73.444;2023-02-28T05:07:30;12.95;;;5.50;;
73823;SDS011;62154;54.914;73.444;2023-02-28T05:10:03;22.35;;;7.00;;
73823;SDS011;62154;54.914;73.444;2023-02-28T05:12:41;25.57;;;9.37;;
73823;SDS011;62154;54.914;73.444;2023-02-28T05:15:12;23.25;;;7.88;;
73823;SDS011;62154;54.914;73.444;2023-02-28T05:17:46;20.80;;;8.18;;
73823;SDS011;62154;54.914;73.444;2023-02-28T05:20:13;15.10;;;6.70;;
73823;SDS011;62154;54.914;73.444;2023-02-28T05:22:46;24.75;;;9.30;;
73823;SDS011;62154;54.914;73.444;2023-02-28T05:25:16;26.88;;;8.88;;
73823;SDS011;62154;54.914;73.444;2023-02-28T05:27:45;15.05;;;6.35;;
73823;SDS011;62154;54.914;73.444;2023-02-28T05:30:13;32.50;;;11.10;;
73823;SDS011;62154;54.914;73.444;2023-02-28T05:32:41;32.45;;;11.45;;
73823;SDS011;62154;54.914;73.444;2023-02-28T05:35:20;29.10;;;8.95;;
73823;SDS011;62154;54.914;73.444;2023-02-28T05:37:50;34.20;;;10.95;;
73823;SDS011;62154;54.914;73.444;2023-02-28T05:40:28;25.70;;;8.75;;
73823;SDS011;62154;54.914;73.444;2023-02-28T05:43:07;37.03;;;11.30;;
73823;SDS011;62154;54.914;73.444;2023-02-28T05:45:37;44.40;;;12.43;;
73823;SDS011;62154;54.914;73.444;2023-02-28T05:48:05;37.08;;;10.38;;
73823;SDS011;62154;54.914;73.444;2023-02-28T05:50:35;25.52;;;9.55;;
73823;SDS011;62154;54.914;73.444;2023-02-28T05:53:12;27.40;;;11.10;;
73823;SDS011;62154;54.914;73.444;2023-02-28T05:55:40;31.10;;;15.77;;
73823;SDS011;62154;54.914;73.444;2023-02-28T05:58:12;20.13;;;7.07;;
73823;SDS011;62154;54.914;73.444;2023-02-28T06:00:50;29.77;;;9.35;;
73823;SDS011;62154;54.914;73.444;2023-02-28T06:03:21;16.10;;;7.73;;
73823;SDS011;62154;54.914;73.444;2023-02-28T06:05:52;20.77;;;8.10;;
73823;SDS011;62154;54.914;73.444;2023-02-28T06:08:20;10.80;;;5.25;;
73823;SDS011;62154;54.914;73.444;2023-02-28T06:10:51;22.80;;;8.52;;
73823;SDS011;62154;54.914;73.444;2023-02-28T06:13:25;32.18;;;13.56;;
73823;SDS011;62154;54.914;73.444;2023-02-28T06:16:00;21.65;;;11.02;;
73823;SDS011;62154;54.914;73.444;2023-02-28T06:18:28;20.95;;;9.40;;
73823;SDS011;62154;54.914;73.444;2023-02-28T06:21:00;17.42;;;9.13;;
73823;SDS011;62154;54.914;73.444;2023-02-28T06:23:28;16.70;;;8.25;;
73823;SDS011;62154;54.914;73.444;2023-02-28T06:25:56;22.90;;;10.07;;
73823;SDS011;62154;54.914;73.444;2023-02-28T06:28:31;11.98;;;5.20;;
73823;SDS011;62154;54.914;73.444;2023-02-28T06:31:08;11.35;;;5.95;;
73823;SDS011;62154;54.914;73.444;2023-02-28T06:33:44;19.00;;;8.57;;
73823;SDS011;62154;54.914;73.444;2023-02-28T06:36:41;20.38;;;7.07;;
73823;SDS011;62154;54.914;73.444;2023-02-28T06:39:13;18.15;;;9.80;;
73823;SDS011;62154;54.914;73.444;2023-02-28T06:41:44;21.38;;;8.95;;
73823;SDS011;62154;54.914;73.444;2023-02-28T06:44:15;13.70;;;6.15;;
73823;SDS011;62154;54.914;73.444;2023-02-28T06:46:44;12.85;;;6.78;;
73823;SDS011;62154;54.914;73.444;2023-02-28T06:49:12;13.73;;;6.65;;
73823;SDS011;62154;54.914;73.444;2023-02-28T06:51:39;17.98;;;9.02;;
73823;SDS011;62154;54.914;73.444;2023-02-28T06:54:08;25.40;;;11.13;;
73823;SDS011;62154;54.914;73.444;2023-02-28T06:56:46;18.63;;;7.18;;
73823;SDS011;62154;54.914;73.444;2023-02-28T06:59:24;18.77;;;7.88;;
73823;SDS011;62154;54.914;73.444;2023-02-28T07:01:56;13.32;;;6.65;;
73823;SDS011;62154;54.914;73.444;2023-02-28T07:04:29;23.35;;;7.25;;
73823;SDS011;62154;54.914;73.444;2023-02-28T07:06:57;16.63;;;6.13;;
73823;SDS011;62154;54.914;73.444;2023-02-28T07:09:30;12.27;;;7.05;;
73823;SDS011;62154;54.914;73.444;2023-02-28T07:12:00;18.42;;;7.85;;
73823;SDS011;62154;54.914;73.444;2023-02-28T07:14:32;12.98;;;5.82;;
73823;SDS011;62154;54.914;73.444;2023-02-28T07:16:59;12.25;;;5.90;;
73823;SDS011;62154;54.914;73.444;2023-02-28T07:19:40;13.98;;;6.20;;
73823;SDS011;62154;54.914;73.444;2023-02-28T07:22:08;13.07;;;5.93;;
73823;SDS011;62154;54.914;73.444;2023-02-28T07:24:35;20.92;;;8.68;;
73823;SDS011;62154;54.914;73.444;2023-02-28T07:27:07;20.77;;;9.48;;
73823;SDS011;62154;54.914;73.444;2023-02-28T07:29:35;11.20;;;5.22;;
73823;SDS011;62154;54.914;73.444;2023-02-28T07:32:04;11.75;;;5.38;;
73823;SDS011;62154;54.914;73.444;2023-02-28T07:34:37;16.67;;;6.57;;
73823;SDS011;62154;54.914;73.444;2023-02-28T07:37:04;22.65;;;9.18;;
73823;SDS011;62154;54.914;73.444;2023-02-28T07:39:42;21.95;;;9.38;;
73823;SDS011;62154;54.914;73.444;2023-02-28T07:42:10;11.90;;;5.35;;
73823;SDS011;62154;54.914;73.444;2023-02-28T07:44:40;22.27;;;10.18;;
73823;SDS011;62154;54.914;73.444;2023-02-28T07:47:16;13.70;;;7.15;;
73823;SDS011;62154;54.914;73.444;2023-02-28T07:49:54;12.82;;;6.47;;
73823;SDS011;62154;54.914;73.444;2023-02-28T07:52:26;15.88;;;6.82;;
73823;SDS011;62154;54.914;73.444;2023-02-28T07:55:04;13.65;;;7.03;;
73823;SDS011;62154;54.914;73.444;2023-02-28T07:57:36;15.20;;;6.45;;
73823;SDS011;62154;54.914;73.444;2023-02-28T08:00:07;13.27;;;5.82;;
73823;SDS011;62154;54.914;73.444;2023-02-28T08:02:41;14.57;;;7.05;;
73823;SDS011;62154;54.914;73.444;2023-02-28T08:05:09;17.63;;;6.85;;
73823;SDS011;62154;54.914;73.444;2023-02-28T08:07:36;18.17;;;6.68;;
73823;SDS011;62154;54.914;73.444;2023-02-28T08:10:04;12.18;;;6.10;;
73823;SDS011;62154;54.914;73.444;2023-02-28T08:12:32;14.95;;;5.72;;
73823;SDS011;62154;54.914;73.444;2023-02-28T08:15:10;15.73;;;6.10;;
73823;SDS011;62154;54.914;73.444;2023-02-28T08:17:38;13.73;;;6.25;;
73823;SDS011;62154;54.914;73.444;2023-02-28T08:20:06;17.83;;;6.35;;
73823;SDS011;62154;54.914;73.444;2023-02-28T08:22:37;13.10;;;5.43;;
73823;SDS011;62154;54.914;73.444;2023-02-28T08:25:05;13.07;;;6.03;;
73823;SDS011;62154;54.914;73.444;2023-02-28T08:27:34;13.90;;;5.85;;
73823;SDS011;62154;54.914;73.444;2023-02-28T08:30:02;17.52;;;6.25;;
73823;SDS011;62154;54.914;73.444;2023-02-28T08:32:41;14.25;;;6.00;;
73823;SDS011;62154;54.914;73.444;2023-02-28T08:35:19;12.32;;;6.10;;
73823;SDS011;62154;54.914;73.444;2023-02-28T08:37:47;9.57;;;5.25;;
73823;SDS011;62154;54.914;73.444;2023-02-28T08:40:18;13.30;;;5.50;;
73823;SDS011;62154;54.914;73.444;2023-02-28T08:42:51;12.75;;;5.72;;
73823;SDS011;62154;54.914;73.444;2023-02-28T08:45:19;11.30;;;5.45;;
73823;SDS011;62154;54.914;73.444;2023-02-28T08:47:47;12.93;;;5.55;;
73823;SDS011;62154;54.914;73.444;2023-02-28T08:50:15;15.15;;;6.07;;
73823;SDS011;62154;54.914;73.444;2023-02-28T08:52:53;17.65;;;6.45;;
73823;SDS011;62154;54.914;73.444;2023-02-28T08:55:21;30.48;;;14.48;;
73823;SDS011;62154;54.914;73.444;2023-02-28T08:57:48;18.33;;;10.48;;
73823;SDS011;62154;54.914;73.444;2023-02-28T09:00:19;22.48;;;8.82;;
73823;SDS011;62154;54.914;73.444;2023-02-28T09:02:59;16.55;;;9.60;;
73823;SDS011;62154;54.914;73.444;2023-02-28T09:05:26;12.43;;;6.78;;
73823;SDS011;62154;54.914;73.444;2023-02-28T09:08:06;17.33;;;8.45;;
73823;SDS011;62154;54.914;73.444;2023-02-28T09:10:34;17.58;;;8.82;;
73823;SDS011;62154;54.914;73.444;2023-02-28T09:13:02;70.57;;;31.83;;
73823;SDS011;62154;54.914;73.444;2023-02-28T09:15:29;86.25;;;34.25;;
73823;SDS011;62154;54.914;73.444;2023-02-28T09:17:58;44.38;;;19.88;;
73823;SDS011;62154;54.914;73.444;2023-02-28T09:20:32;98.00;;;36.78;;
73823;SDS011;62154;54.914;73.444;2023-02-28T09:23:21;42.00;;;13.32;;
73823;SDS011;62154;54.914;73.444;2023-02-28T09:26:00;137.55;;;40.83;;
73823;SDS011;62154;54.914;73.444;2023-02-28T09:28:32;147.95;;;50.28;;
73823;SDS011;62154;54.914;73.444;2023-02-28T09:33:45;63.20;;;22.85;;
73823;SDS011;62154;54.914;73.444;2023-02-28T09:36:24;148.70;;;47.40;;
73823;SDS011;62154;54.914;73.444;2023-02-28T09:38:55;38.75;;;15.32;;
73823;SDS011;62154;54.914;73.444;2023-02-28T09:41:24;30.85;;;11.77;;
73823;SDS011;62154;54.914;73.444;2023-02-28T09:44:00;31.33;;;10.77;;
73823;SDS011;62154;54.914;73.444;2023-02-28T09:46:33;17.05;;;8.38;;
73823;SDS011;62154;54.914;73.444;2023-02-28T09:49:14;30.02;;;13.75;;
73823;SDS011;62154;54.914;73.444;2023-02-28T09:51:56;19.30;;;10.23;;
73823;SDS011;62154;54.914;73.444;2023-02-28T09:54:46;16.73;;;8.32;;
73823;SDS011;62154;54.914;73.444;2023-02-28T09:57:27;14.05;;;8.05;;
73823;SDS011;62154;54.914;73.444;2023-02-28T10:03:05;16.55;;;6.68;;
73823;SDS011;62154;54.914;73.444;2023-02-28T10:06:13;14.90;;;6.93;;
73823;SDS011;62154;54.914;73.444;2023-02-28T10:11:45;18.70;;;8.18;;
73823;SDS011;62154;54.914;73.444;2023-02-28T10:14:15;15.23;;;6.78;;
73823;SDS011;62154;54.914;73.444;2023-02-28T10:16:48;14.82;;;8.15;;
73823;SDS011;62154;54.914;73.444;2023-02-28T10:22:15;23.90;;;10.45;;
73823;SDS011;62154;54.914;73.444;2023-02-28T10:24:49;22.85;;;9.90;;
73823;SDS011;62154;54.914;73.444;2023-02-28T10:27:20;25.00;;;11.35;;
73823;SDS011;62154;54.914;73.444;2023-02-28T10:30:02;21.83;;;9.73;;
73823;SDS011;62154;54.914;73.444;2023-02-28T10:32:35;15.38;;;8.82;;
73823;SDS011;62154;54.914;73.444;2023-02-28T10:37:56;15.63;;;7.43;;
73823;SDS011;62154;54.914;73.444;2023-02-28T10:43:04;14.93;;;7.43;;
73823;SDS011;62154;54.914;73.444;2023-02-28T10:45:54;14.55;;;8.15;;
73823;SDS011;62154;54.914;73.444;2023-02-28T10:48:34;16.27;;;7.57;;
73823;SDS011;62154;54.914;73.444;2023-02-28T10:51:13;12.25;;;7.05;;
73823;SDS011;62154;54.914;73.444;2023-02-28T10:53:53;19.73;;;7.53;;
73823;SDS011;62154;54.914;73.444;2023-02-28T10:56:29;13.77;;;6.70;;
73823;SDS011;62154;54.914;73.444;2023-02-28T11:01:50;15.48;;;8.48;;
73823;SDS011;62154;54.914;73.444;2023-02-28T11:07:00;16.30;;;9.10;;
73823;SDS011;62154;54.914;73.444;2023-02-28T11:09:49;15.57;;;8.30;;
73823;SDS011;62154;54.914;73.444;2023-02-28T11:15:07;16.92;;;8.43;;
73823;SDS011;62154;54.914;73.444;2023-02-28T11:17:56;19.75;;;9.73;;
73823;SDS011;62154;54.914;73.444;2023-02-28T11:20:42;20.23;;;10.05;;
73823;SDS011;62154;54.914;73.444;2023-02-28T11:23:17;17.38;;;9.60;;
73823;SDS011;62154;54.914;73.444;2023-02-28T11:25:51;19.60;;;9.68;;
73823;SDS011;62154;54.914;73.444;2023-02-28T11:28:30;22.15;;;11.23;;
73823;SDS011;62154;54.914;73.444;2023-02-28T11:36:20;20.02;;;10.23;;
73823;SDS011;62154;54.914;73.444;2023-02-28T11:39:09;22.58;;;9.90;;
73823;SDS011;62154;54.914;73.444;2023-02-28T11:44:31;23.30;;;9.75;;
73823;SDS011;62154;54.914;73.444;2023-02-28T11:47:16;22.17;;;9.98;;
73823;SDS011;62154;54.914;73.444;2023-02-28T13:04:34;42.25;;;19.73;;
73823;SDS011;62154;54.914;73.444;2023-02-28T13:10:43;71.40;;;33.55;;
73823;SDS011;62154;54.914;73.444;2023-02-28T13:13:18;54.92;;;24.17;;
73823;SDS011;62154;54.914;73.444;2023-02-28T13:16:24;49.40;;;22.60;;
73823;SDS011;62154;54.914;73.444;2023-02-28T13:18:45;42.60;;;19.08;;
73823;SDS011;62154;54.914;73.444;2023-02-28T13:21:23;79.22;;;35.55;;
73823;SDS011;62154;54.914;73.444;2023-02-28T13:24:07;38.03;;;17.35;;
73823;SDS011;62154;54.914;73.444;2023-02-28T13:32:19;27.50;;;13.15;;
73823;SDS011;62154;54.914;73.444;2023-02-28T13:34:36;28.08;;;13.75;;
73823;SDS011;62154;54.914;73.444;2023-02-28T13:42:57;36.37;;;14.43;;
73823;SDS011;62154;54.914;73.444;2023-02-28T13:45:25;28.42;;;14.00;;
73823;SDS011;62154;54.914;73.444;2023-02-28T13:48:01;20.77;;;10.40;;
73823;SDS011;62154;54.914;73.444;2023-02-28T13:58:31;36.15;;;16.75;;
73823;SDS011;62154;54.914;73.444;2023-02-28T14:06:46;24.38;;;13.23;;
73823;SDS011;62154;54.914;73.444;2023-02-28T14:09:19;21.27;;;11.38;;
73823;SDS011;62154;54.914;73.444;2023-02-28T14:11:49;26.80;;;13.88;;
73823;SDS011;62154;54.914;73.444;2023-02-28T14:17:03;25.38;;;13.80;;
73823;SDS011;62154;54.914;73.444;2023-02-28T14:25:43;32.80;;;16.45;;
73823;SDS011;62154;54.914;73.444;2023-02-28T14:31:34;39.45;;;18.88;;
73823;SDS011;62154;54.914;73.444;2023-02-28T14:36:51;24.23;;;12.90;;
73823;SDS011;62154;54.914;73.444;2023-02-28T14:39:28;50.65;;;22.45;;
73823;SDS011;62154;54.914;73.444;2023-02-28T14:42:00;44.38;;;19.13;;
73823;SDS011;62154;54.914;73.444;2023-02-28T14:44:41;121.85;;;44.78;;
73823;SDS011;62154;54.914;73.444;2023-02-28T14:47:13;43.95;;;18.13;;
73823;SDS011;62154;54.914;73.444;2023-02-28T14:49:44;55.72;;;26.45;;
73823;SDS011;62154;54.914;73.444;2023-02-28T14:52:19;53.15;;;21.77;;
73823;SDS011;62154;54.914;73.444;2023-02-28T14:54:59;55.20;;;25.30;;
73823;SDS011;62154;54.914;73.444;2023-02-28T14:57:34;147.93;;;59.25;;
73823;SDS011;62154;54.914;73.444;2023-02-28T15:00:12;140.05;;;61.22;;
73823;SDS011;62154;54.914;73.444;2023-02-28T15:02:53;45.78;;;21.25;;
73823;SDS011;62154;54.914;73.444;2023-02-28T15:05:31;70.20;;;31.48;;
73823;SDS011;62154;54.914;73.444;2023-02-28T15:10:44;79.05;;;29.33;;
73823;SDS011;62154;54.914;73.444;2023-02-28T15:16:25;39.70;;;19.05;;
73823;SDS011;62154;54.914;73.444;2023-02-28T15:19:04;70.93;;;30.90;;
73823;SDS011;62154;54.914;73.444;2023-02-28T15:22:03;54.50;;;25.15;;
73823;SDS011;62154;54.914;73.444;2023-02-28T15:24:41;117.07;;;47.35;;
73823;SDS011;62154;54.914;73.444;2023-02-28T15:27:14;59.80;;;25.38;;
73823;SDS011;62154;54.914;73.444;2023-02-28T15:29:48;54.88;;;25.25;;
73823;SDS011;62154;54.914;73.444;2023-02-28T15:35:17;49.55;;;22.65;;
73823;SDS011;62154;54.914;73.444;2023-02-28T15:37:55;54.70;;;23.92;;
73823;SDS011;62154;54.914;73.444;2023-02-28T15:40:31;38.58;;;18.52;;
73823;SDS011;62154;54.914;73.444;2023-02-28T15:45:45;49.08;;;20.50;;
73823;SDS011;62154;54.914;73.444;2023-02-28T15:48:22;33.65;;;15.73;;
73823;SDS011;62154;54.914;73.444;2023-02-28T15:53:41;43.05;;;18.63;;
73823;SDS011;62154;54.914;73.444;2023-02-28T15:56:24;30.80;;;14.57;;
73823;SDS011;62154;54.914;73.444;2023-02-28T15:58:57;35.78;;;13.85;;
73823;SDS011;62154;54.914;73.444;2023-02-28T16:01:28;32.95;;;13.27;;
73823;SDS011;62154;54.914;73.444;2023-02-28T16:04:17;21.25;;;10.65;;
73823;SDS011;62154;54.914;73.444;2023-02-28T16:09:26;51.38;;;19.90;;
73823;SDS011;62154;54.914;73.444;2023-02-28T16:11:56;50.03;;;21.80;;
73823;SDS011;62154;54.914;73.444;2023-02-28T16:14:31;63.72;;;26.13;;
73823;SDS011;62154;54.914;73.444;2023-02-28T16:17:06;64.75;;;26.55;;
73823;SDS011;62154;54.914;73.444;2023-02-28T16:19:48;66.43;;;24.77;;
73823;SDS011;62154;54.914;73.444;2023-02-28T16:22:25;66.25;;;24.58;;
73823;SDS011;62154;54.914;73.444;2023-02-28T16:24:53;58.95;;;24.00;;
73823;SDS011;62154;54.914;73.444;2023-02-28T16:27:32;63.38;;;25.08;;
73823;SDS011;62154;54.914;73.444;2023-02-28T16:30:21;53.40;;;21.77;;
73823;SDS011;62154;54.914;73.444;2023-02-28T16:32:54;48.10;;;19.92;;
73823;SDS011;62154;54.914;73.444;2023-02-28T16:35:22;45.88;;;19.98;;
73823;SDS011;62154;54.914;73.444;2023-02-28T16:38:00;36.30;;;16.40;;
73823;SDS011;62154;54.914;73.444;2023-02-28T16:40:27;46.72;;;19.13;;
73823;SDS011;62154;54.914;73.444;2023-02-28T16:43:01;41.30;;;16.77;;
73823;SDS011;62154;54.914;73.444;2023-02-28T16:45:36;35.55;;;14.68;;
73823;SDS011;62154;54.914;73.444;2023-02-28T16:48:14;31.23;;;13.68;;
73823;SDS011;62154;54.914;73.444;2023-02-28T16:50:48;31.42;;;13.55;;
73823;SDS011;62154;54.914;73.444;2023-02-28T16:53:16;30.00;;;13.90;;
73823;SDS011;62154;54.914;73.444;2023-02-28T16:55:43;34.53;;;13.15;;
73823;SDS011;62154;54.914;73.444;2023-02-28T16:58:13;31.02;;;12.50;;
73823;SDS011;62154;54.914;73.444;2023-02-28T17:00:42;22.10;;;10.25;;
73823;SDS011;62154;54.914;73.444;2023-02-28T17:03:15;23.77;;;11.40;;
73823;SDS011;62154;54.914;73.444;2023-02-28T17:05:52;23.33;;;10.85;;
73823;SDS011;62154;54.914;73.444;2023-02-28T17:08:20;20.33;;;9.95;;
73823;SDS011;62154;54.914;73.444;2023-02-28T17:10:58;21.15;;;11.25;;
73823;SDS011;62154;54.914;73.444;2023-02-28T17:13:26;21.17;;;10.52;;
73823;SDS011;62154;54.914;73.444;2023-02-28T17:15:53;21.42;;;10.52;;
73823;SDS011;62154;54.914;73.444;2023-02-28T17:18:23;16.88;;;7.88;;
73823;SDS011;62154;54.914;73.444;2023-02-28T17:21:03;20.20;;;10.98;;
73823;SDS011;62154;54.914;73.444;2023-02-28T17:23:32;20.58;;;10.13;;
73823;SDS011;62154;54.914;73.444;2023-02-28T17:25:59;20.35;;;10.93;;
73823;SDS011;62154;54.914;73.444;2023-02-28T17:28:26;22.35;;;10.77;;
73823;SDS011;62154;54.914;73.444;2023-02-28T17:30:54;17.30;;;9.45;;
73823;SDS011;62154;54.914;73.444;2023-02-28T17:33:21;18.55;;;9.63;;
73823;SDS011;62154;54.914;73.444;2023-02-28T17:35:48;16.60;;;8.65;;
73823;SDS011;62154;54.914;73.444;2023-02-28T17:38:17;16.45;;;8.90;;
73823;SDS011;62154;54.914;73.444;2023-02-28T17:40:46;17.17;;;8.98;;
73823;SDS011;62154;54.914;73.444;2023-02-28T17:43:16;18.35;;;9.02;;
73823;SDS011;62154;54.914;73.444;2023-02-28T17:45:44;20.23;;;9.75;;
73823;SDS011;62154;54.914;73.444;2023-02-28T17:48:11;17.83;;;9.20;;
73823;SDS011;62154;54.914;73.444;2023-02-28T17:50:44;29.85;;;12.65;;
73823;SDS011;62154;54.914;73.444;2023-02-28T17:53:11;26.38;;;13.00;;
73823;SDS011;62154;54.914;73.444;2023-02-28T17:55:44;38.38;;;17.05;;
73823;SDS011;62154;54.914;73.444;2023-02-28T17:58:22;28.17;;;12.18;;
73823;SDS011;62154;54.914;73.444;2023-02-28T18:00:49;16.15;;;8.20;;
73823;SDS011;62154;54.914;73.444;2023-02-28T18:03:20;16.45;;;7.78;;
73823;SDS011;62154;54.914;73.444;2023-02-28T18:05:58;16.48;;;9.60;;
73823;SDS011;62154;54.914;73.444;2023-02-28T18:08:26;18.08;;;8.75;;
73823;SDS011;62154;54.914;73.444;2023-02-28T18:10:58;16.85;;;8.75;;
73823;SDS011;62154;54.914;73.444;2023-02-28T18:13:25;18.70;;;9.05;;